Time;durP1;ratioP1;P1;durP2;ratioP2;P2;SDS_P1;SDS_P2;PMS_P1;PMS_P2;Temp;Humidity;BMP_temperature;BMP_pressure;BME280_temperature;BME280_humidity;BME280_pressure;Samples;Min_cycle;Max_cycle;Signal;HPM_P1;HPM_P2
2023/06/11 00:00:17;;;;;;;12.55;8.23;;;;;;;20.58;60.81;101419.19;4881592;29;20477;-79
2023/06/11 00:02:42;;;;;;;9.45;8.40;;;;;;;20.79;60.61;101454.84;4881697;29;20063;-78
2023/06/11 00:05:09;;;;;;;10.77;8.57;;;;;;;20.68;61.00;101441.94;4881842;29;20096;-78
2023/06/11 00:07:38;;;;;;;10.88;8.85;;;;;;;20.71;61.51;101447.69;4881322;29;20025;-79
2023/06/11 00:10:07;;;;;;;11.10;8.60;;;;;;;20.43;61.62;101419.81;4881606;29;20036;-79
2023/06/11 00:12:33;;;;;;;11.32;9.20;;;;;;;20.53;61.38;101441.59;4881305;29;20540;-79
2023/06/11 00:15:02;;;;;;;12.20;8.52;;;;;;;20.53;61.94;101431.91;4879924;29;20112;-79
2023/06/11 00:17:28;;;;;;;11.93;9.05;;;;;;;20.62;61.74;101446.78;4880203;29;20052;-79
2023/06/11 00:19:53;;;;;;;11.70;8.73;;;;;;;20.47;62.01;101413.31;4881318;29;20029;-79
2023/06/11 00:22:19;;;;;;;11.43;8.65;;;;;;;20.63;61.96;101442.34;4881158;29;20036;-79
2023/06/11 00:24:46;;;;;;;15.02;9.25;;;;;;;20.53;62.21;101428.47;4881075;29;20029;-78
2023/06/11 00:27:11;;;;;;;13.73;8.68;;;;;;;20.36;62.99;101422.19;4881248;29;20088;-79
2023/06/11 00:29:37;;;;;;;12.02;9.40;;;;;;;20.43;62.77;101435.56;4880905;29;20064;-79
2023/06/11 00:32:02;;;;;;;9.93;8.70;;;;;;;20.47;62.53;101439.56;4881129;29;20060;-77
2023/06/11 00:34:27;;;;;;;12.63;9.18;;;;;;;20.41;62.95;101443.56;4881329;29;20104;-79
2023/06/11 00:36:53;;;;;;;11.73;9.07;;;;;;;20.34;63.44;101437.22;4880980;29;20035;-79
2023/06/11 00:39:19;;;;;;;10.77;9.13;;;;;;;20.02;63.50;101391.25;4880998;29;20064;-79
2023/06/11 00:41:48;;;;;;;12.93;9.63;;;;;;;20.29;63.69;101436.84;4880903;29;20032;-79
2023/06/11 00:44:17;;;;;;;10.00;8.63;;;;;;;20.19;64.45;101430.81;4880715;29;20032;-79
2023/06/11 00:46:47;;;;;;;11.73;9.20;;;;;;;20.19;64.75;101439.50;4880857;29;20033;-79
2023/06/11 00:49:12;;;;;;;10.50;9.05;;;;;;;20.17;64.53;101438.84;4880876;29;20032;-79
2023/06/11 00:51:44;;;;;;;12.48;9.63;;;;;;;20.14;64.79;101427.78;4880829;29;20025;-78
2023/06/11 00:54:16;;;;;;;12.63;9.82;;;;;;;20.10;65.16;101436.94;4880811;29;20048;-79
2023/06/11 00:56:48;;;;;;;15.95;9.80;;;;;;;19.92;66.29;101428.97;4879303;29;20078;-79
2023/06/11 00:59:16;;;;;;;12.82;9.43;;;;;;;19.93;66.74;101435.88;4880528;29;20068;-79
2023/06/11 01:01:51;;;;;;;10.68;9.02;;;;;;;19.86;65.97;101432.16;4880577;29;20025;-78
2023/06/11 01:04:17;;;;;;;14.63;10.07;;;;;;;19.92;66.32;101431.59;4880175;29;20040;-79
2023/06/11 01:06:49;;;;;;;12.02;9.60;;;;;;;19.80;66.49;101424.88;4880268;29;20069;-79
2023/06/11 01:09:19;;;;;;;13.45;10.25;;;;;;;19.74;66.79;101421.84;4880225;29;20104;-78
2023/06/11 01:11:48;;;;;;;11.77;9.38;;;;;;;19.85;67.20;101441.81;4879256;29;20137;-79
2023/06/11 01:14:19;;;;;;;12.25;10.60;;;;;;;19.82;66.84;101439.47;4880283;29;20044;-79
2023/06/11 01:16:53;;;;;;;13.60;10.02;;;;;;;19.74;67.80;101432.31;4880339;29;20064;-79
2023/06/11 01:19:48;;;;;;;13.68;10.38;;;;;;;19.70;66.79;101436.19;4878712;29;20040;-78
2023/06/11 01:22:49;;;;;;;12.40;10.18;;;;;;;19.62;67.96;101445.72;4879783;29;20021;-79
2023/06/11 01:25:52;;;;;;;13.13;9.90;;;;;;;19.58;67.61;101442.56;4878594;29;20097;-79
2023/06/11 01:28:28;;;;;;;11.38;10.02;;;;;;;19.52;67.99;101439.66;4879927;29;20029;-79
2023/06/11 01:30:57;;;;;;;12.32;10.75;;;;;;;19.50;69.08;101452.88;4879930;29;20381;-79
2023/06/11 01:33:24;;;;;;;12.45;11.00;;;;;;;19.47;69.28;101448.75;4879588;29;20062;-79
2023/06/11 01:35:52;;;;;;;14.70;10.77;;;;;;;19.30;69.82;101438.16;4879679;29;20029;-79
2023/06/11 01:38:21;;;;;;;13.50;11.23;;;;;;;19.10;69.91;101406.72;4879860;29;20036;-77
2023/06/11 01:40:47;;;;;;;12.88;10.52;;;;;;;19.15;70.09;101412.38;4879136;29;20052;-78
2023/06/11 01:43:13;;;;;;;13.55;11.63;;;;;;;19.19;69.83;101418.16;4879551;29;20089;-79
2023/06/11 01:45:38;;;;;;;14.60;11.27;;;;;;;19.39;70.01;101443.38;4879720;29;20410;-79
2023/06/11 01:48:04;;;;;;;13.05;11.15;;;;;;;19.27;69.82;101426.16;4879698;29;20473;-79
2023/06/11 01:50:33;;;;;;;12.95;11.45;;;;;;;19.27;69.96;101426.16;4879577;29;20124;-78
2023/06/11 01:52:58;;;;;;;13.63;11.88;;;;;;;19.40;70.11;101446.84;4879479;29;20104;-78
2023/06/11 01:55:24;;;;;;;14.13;11.93;;;;;;;19.23;70.38;101431.81;4862859;29;20119;-79
2023/06/11 01:57:49;;;;;;;15.02;11.85;;;;;;;19.28;70.10;101440.09;4879145;29;20041;-79
2023/06/11 02:00:15;;;;;;;13.50;11.40;;;;;;;19.35;70.27;101449.84;4879620;29;20127;-78
2023/06/11 02:02:43;;;;;;;14.50;11.48;;;;;;;19.15;70.97;101428.06;4879430;29;20064;-78
2023/06/11 02:05:11;;;;;;;13.68;11.98;;;;;;;19.32;71.13;101449.31;4877879;29;20041;-78
2023/06/11 02:07:36;;;;;;;14.60;12.20;;;;;;;19.19;71.12;101428.66;4879292;29;20025;-78
2023/06/11 02:10:02;;;;;;;14.20;12.35;;;;;;;19.11;71.14;101433.75;4879371;29;20492;-78
2023/06/11 02:12:27;;;;;;;13.80;12.32;;;;;;;19.19;71.05;101447.78;4879264;29;20393;-79
2023/06/11 02:14:52;;;;;;;13.63;12.23;;;;;;;19.10;71.64;101445.19;4879121;29;20465;-78
2023/06/11 02:17:18;;;;;;;14.18;11.38;;;;;;;18.83;71.96;101410.00;4879164;29;20040;-78
2023/06/11 02:19:43;;;;;;;15.50;12.60;;;;;;;18.97;72.62;101447.22;4879017;29;20122;-79
2023/06/11 02:22:08;;;;;;;15.45;12.48;;;;;;;18.84;73.16;101434.38;4879138;29;20047;-79
2023/06/11 02:24:34;;;;;;;14.32;12.80;;;;;;;18.93;73.04;101454.50;4879087;29;20434;-79
2023/06/11 02:26:59;;;;;;;13.63;12.20;;;;;;;18.88;73.61;101454.94;4879140;29;20027;-79
2023/06/11 02:29:24;;;;;;;13.60;12.20;;;;;;;18.55;73.75;101395.06;4879025;29;20039;-79
2023/06/11 02:31:50;;;;;;;14.10;12.63;;;;;;;18.72;73.53;101438.09;4878901;29;20025;-79
2023/06/11 02:34:15;;;;;;;14.90;12.60;;;;;;;18.73;74.61;101445.81;4878931;29;20033;-79
2023/06/11 02:36:40;;;;;;;15.70;13.02;;;;;;;18.39;75.17;101400.81;4878935;29;20509;-79
2023/06/11 02:39:06;;;;;;;15.85;13.43;;;;;;;18.69;74.91;101446.22;4878796;29;20111;-78
2023/06/11 02:41:33;;;;;;;15.23;12.63;;;;;;;18.58;74.88;101450.56;4877750;29;20107;-79
2023/06/11 02:43:59;;;;;;;15.93;13.25;;;;;;;18.41;75.73;101437.28;4877510;29;20041;-79
2023/06/11 02:46:24;;;;;;;14.85;13.30;;;;;;;18.43;75.66;101440.59;4878617;29;20036;-78
2023/06/11 02:48:49;;;;;;;16.15;13.63;;;;;;;18.39;75.41;101426.97;4878615;29;20505;-79
2023/06/11 02:51:14;;;;;;;15.57;14.05;;;;;;;18.48;75.86;101454.06;4878148;29;20044;-79
2023/06/11 02:53:40;;;;;;;15.43;13.65;;;;;;;18.49;76.29;101455.75;4878423;29;20124;-78
2023/06/11 02:56:05;;;;;;;15.77;14.05;;;;;;;18.44;76.71;101457.94;4878622;29;20068;-79
2023/06/11 02:58:31;;;;;;;15.80;14.18;;;;;;;18.37;77.29;101449.78;4878785;29;20044;-78
2023/06/11 03:00:56;;;;;;;16.20;14.40;;;;;;;18.41;76.86;101456.41;4878597;29;20048;-79
2023/06/11 03:03:22;;;;;;;16.55;15.02;;;;;;;18.35;77.16;101444.69;4874479;29;20606;-77
2023/06/11 03:05:47;;;;;;;16.73;14.73;;;;;;;18.39;77.52;101455.72;4860022;29;20045;-80
2023/06/11 03:08:13;;;;;;;18.80;15.70;;;;;;;18.32;77.29;101452.81;4860065;29;20037;-80
2023/06/11 03:10:38;;;;;;;15.85;14.18;;;;;;;18.35;77.84;101452.53;4860053;29;20040;-80
2023/06/11 03:13:04;;;;;;;17.27;14.55;;;;;;;18.38;77.06;101464.50;4860051;29;20037;-80
2023/06/11 03:15:30;;;;;;;16.48;14.77;;;;;;;18.13;77.81;101426.56;4858581;29;20048;-79
2023/06/11 03:17:55;;;;;;;16.60;15.02;;;;;;;18.16;78.33;101439.38;4860267;29;20041;-79
2023/06/11 03:20:21;;;;;;;16.02;14.32;;;;;;;17.99;77.75;101409.47;4860016;29;20386;-80
2023/06/11 03:22:49;;;;;;;16.45;14.75;;;;;;;18.18;78.50;101441.84;4859878;29;20398;-80
2023/06/11 03:25:14;;;;;;;18.77;15.50;;;;;;;18.23;78.40;101463.22;4859966;29;20029;-79
2023/06/11 03:27:40;;;;;;;16.60;14.90;;;;;;;17.96;78.77;101412.31;4865734;23;20694;-80
2023/06/11 03:30:06;;;;;;;18.48;14.95;;;;;;;18.09;78.64;101448.69;4840924;29;20102;-80
2023/06/11 03:32:31;;;;;;;18.55;14.68;;;;;;;18.06;79.33;101452.41;4840303;29;20038;-80
2023/06/11 03:34:57;;;;;;;20.30;15.32;;;;;;;18.06;79.77;101465.47;4841394;29;20041;-80
2023/06/11 03:37:30;;;;;;;15.73;14.02;;;;;;;17.95;80.14;101459.50;4840052;29;20125;-80
2023/06/11 03:40:01;;;;;;;15.95;14.35;;;;;;;17.77;80.40;101433.13;4841206;29;20069;-79
2023/06/11 03:42:28;;;;;;;16.40;14.70;;;;;;;17.84;80.68;101452.56;4825045;29;20075;-79
2023/06/11 03:44:54;;;;;;;17.10;14.95;;;;;;;17.74;80.83;101430.78;4841196;29;20550;-80
2023/06/11 03:47:19;;;;;;;15.93;14.20;;;;;;;17.73;80.94;101436.94;4841449;29;20116;-79
2023/06/11 03:49:45;;;;;;;17.60;14.98;;;;;;;17.89;81.17;101466.03;4841294;29;20040;-80
2023/06/11 03:52:23;;;;;;;17.42;15.57;;;;;;;17.70;81.01;101434.59;4841451;29;20048;-80
2023/06/11 03:54:48;;;;;;;18.27;15.07;;;;;;;17.77;80.85;101449.63;4841490;29;20026;-80
2023/06/11 03:57:13;;;;;;;17.10;15.27;;;;;;;17.81;81.11;101450.22;4841079;29;20442;-79
2023/06/11 03:59:39;;;;;;;17.67;15.88;;;;;;;17.87;81.17;101462.75;4841158;29;20474;-80
2023/06/11 04:02:05;;;;;;;17.92;16.02;;;;;;;17.96;81.80;101477.66;4841278;29;20037;-80
2023/06/11 04:04:32;;;;;;;17.67;15.85;;;;;;;17.99;81.34;101473.94;4843879;29;20478;-80
2023/06/11 04:06:57;;;;;;;17.60;15.68;;;;;;;17.88;81.99;101474.84;4844518;29;20056;-80
2023/06/11 04:09:23;;;;;;;19.67;17.60;;;;;;;17.98;81.82;101472.28;4844469;29;20440;-80
2023/06/11 04:11:48;;;;;;;17.50;15.63;;;;;;;17.95;81.58;101457.69;4843267;29;20057;-80
2023/06/11 04:14:14;;;;;;;17.67;15.82;;;;;;;17.84;81.76;101439.50;4844297;29;20038;-80
2023/06/11 04:16:39;;;;;;;17.85;16.15;;;;;;;17.87;82.22;101444.44;4844199;29;20064;-79
2023/06/11 04:19:04;;;;;;;18.90;17.05;;;;;;;17.96;81.16;101438.44;4844491;29;20132;-79
2023/06/11 04:21:29;;;;;;;17.83;16.05;;;;;;;18.21;80.75;101454.69;4844084;29;20029;-79
2023/06/11 04:23:55;;;;;;;18.52;16.65;;;;;;;18.23;80.81;101453.59;4844154;29;20068;-80
2023/06/11 04:26:20;;;;;;;18.63;16.33;;;;;;;18.37;79.21;101447.16;4844273;29;20494;-79
2023/06/11 04:28:48;;;;;;;18.67;16.73;;;;;;;18.43;79.94;101449.25;4843954;29;20069;-80
2023/06/11 04:31:14;;;;;;;18.70;16.63;;;;;;;18.73;77.91;101458.88;4844148;29;20050;-80
2023/06/11 04:33:40;;;;;;;17.75;15.95;;;;;;;18.84;78.26;101450.09;4842851;29;20057;-79
2023/06/11 04:36:08;;;;;;;17.17;15.48;;;;;;;18.41;77.38;101372.72;4908288;24;21170;-79
2023/06/11 04:38:37;;;;;;;18.17;16.27;;;;;;;19.20;77.11;101483.50;4860644;29;20042;-80
2023/06/11 04:41:07;;;;;;;19.80;15.95;;;;;;;18.70;75.89;101385.06;4862491;29;20029;-80
2023/06/11 04:43:36;;;;;;;17.88;16.10;;;;;;;19.32;75.39;101480.72;4862364;29;20029;-80
2023/06/11 04:46:03;;;;;;;17.30;15.50;;;;;;;19.32;75.45;101481.56;4862669;29;20037;-79
2023/06/11 04:48:31;;;;;;;17.88;15.23;;;;;;;19.20;75.67;101453.84;4862457;29;20375;-80
2023/06/11 04:51:00;;;;;;;17.95;15.98;;;;;;;19.23;75.99;101464.06;4860566;29;20033;-80
2023/06/11 04:53:27;;;;;;;18.83;15.85;;;;;;;19.18;76.55;101461.84;4862089;29;20562;-79
2023/06/11 04:55:54;;;;;;;16.88;15.10;;;;;;;19.10;75.89;101443.38;4862157;29;20029;-79
2023/06/11 04:58:27;;;;;;;17.70;16.00;;;;;;;19.26;76.16;101462.94;4861891;29;20029;-79
2023/06/11 05:00:57;;;;;;;17.98;16.13;;;;;;;19.37;75.42;101466.28;4862162;29;20025;-79
2023/06/11 05:03:24;;;;;;;17.35;15.65;;;;;;;19.63;75.70;101477.03;4861710;29;20083;-79
2023/06/11 05:05:50;;;;;;;18.75;15.95;;;;;;;19.97;73.32;101485.25;4861745;29;20030;-79
2023/06/11 05:08:20;;;;;;;17.40;15.50;;;;;;;20.19;72.50;101486.72;4861806;29;20451;-80
2023/06/11 05:10:45;;;;;;;16.65;14.90;;;;;;;20.30;71.45;101455.06;4860491;29;20029;-79
2023/06/11 05:13:12;;;;;;;17.25;15.45;;;;;;;20.60;70.20;101463.66;4856166;23;20061;-79
2023/06/11 05:15:38;;;;;;;16.75;15.05;;;;;;;20.71;69.65;101458.19;4842447;29;20475;-79
2023/06/11 05:18:03;;;;;;;17.30;14.88;;;;;;;20.91;68.36;101446.59;4843400;29;20099;-79
2023/06/11 05:20:29;;;;;;;16.80;15.10;;;;;;;21.39;66.33;101455.13;4853823;29;20467;-79
2023/06/11 05:22:58;;;;;;;16.90;15.18;;;;;;;21.84;64.65;101489.16;4861186;29;20033;-79
2023/06/11 05:25:29;;;;;;;15.38;13.77;;;;;;;22.37;62.90;101497.88;4861523;29;20502;-79
2023/06/11 05:28:01;;;;;;;16.42;14.43;;;;;;;22.97;61.50;101495.16;4861211;29;20065;-79
2023/06/11 05:30:36;;;;;;;15.38;13.88;;;;;;;23.61;58.93;101490.97;4861090;29;20116;-80
2023/06/11 05:33:02;;;;;;;17.25;14.00;;;;;;;24.67;55.23;101483.59;4861430;29;20481;-79
2023/06/11 05:35:28;;;;;;;14.43;12.93;;;;;;;25.31;53.43;101475.47;4861355;29;20033;-79
2023/06/11 05:37:57;;;;;;;14.70;13.27;;;;;;;26.11;49.97;101474.91;4861004;29;20070;-80
2023/06/11 05:40:23;;;;;;;13.88;12.38;;;;;;;26.63;49.08;101480.06;4861193;29;20038;-80
2023/06/11 05:42:48;;;;;;;14.30;12.48;;;;;;;27.30;46.23;101479.78;4861286;29;20043;-80
2023/06/11 05:45:14;;;;;;;13.55;12.15;;;;;;;27.86;45.21;101484.31;4861335;29;20052;-81
2023/06/11 05:47:39;;;;;;;14.77;11.50;;;;;;;28.34;44.30;101482.56;4861142;29;20072;-80
2023/06/11 05:50:06;;;;;;;12.77;11.48;;;;;;;28.62;42.48;101468.38;4860929;29;20029;-80
2023/06/11 05:52:31;;;;;;;12.98;10.35;;;;;;;29.12;42.05;101481.19;4860863;29;20041;-79
2023/06/11 05:54:56;;;;;;;14.80;11.52;;;;;;;29.42;40.83;101468.31;4861059;29;20026;-80
2023/06/11 05:57:24;;;;;;;13.32;11.20;;;;;;;30.10;39.10;101464.56;4860981;29;20037;-80
2023/06/11 05:59:50;;;;;;;12.55;11.05;;;;;;;30.28;39.18;101480.66;4860957;29;20022;-80
2023/06/11 06:02:16;;;;;;;12.18;10.93;;;;;;;30.75;38.39;101463.47;4860955;29;20040;-80
2023/06/11 06:04:41;;;;;;;12.43;11.10;;;;;;;31.16;37.85;101490.69;4860631;29;20025;-79
2023/06/11 06:07:06;;;;;;;11.25;10.10;;;;;;;31.84;36.34;101490.75;4860537;29;20037;-79
2023/06/11 06:09:35;;;;;;;12.02;10.82;;;;;;;32.22;35.76;101491.34;4860664;29;20063;-78
2023/06/11 06:12:00;;;;;;;12.88;11.02;;;;;;;32.34;34.68;101493.31;4860438;29;20048;-80
2023/06/11 06:14:26;;;;;;;10.52;9.55;;;;;;;32.96;34.32;101496.63;4860777;29;20116;-78
2023/06/11 06:16:51;;;;;;;12.07;10.35;;;;;;;32.97;33.90;101491.03;4860694;29;20097;-79
2023/06/11 06:19:17;;;;;;;12.65;10.85;;;;;;;32.58;34.45;101467.50;4860741;29;20029;-77
2023/06/11 06:21:43;;;;;;;12.48;11.18;;;;;;;33.02;33.41;101477.78;4860587;29;20089;-79
2023/06/11 06:24:10;;;;;;;12.73;10.98;;;;;;;32.90;33.42;101441.34;4860537;29;20033;-79
2023/06/11 06:26:40;;;;;;;13.98;10.93;;;;;;;33.41;32.93;101493.47;4860224;29;20037;-79
2023/06/11 06:29:06;;;;;;;13.32;11.77;;;;;;;33.37;31.87;101471.69;4860569;29;20096;-80
2023/06/11 06:31:32;;;;;;;12.45;11.15;;;;;;;33.15;33.25;101505.41;4860338;29;20116;-78
2023/06/11 06:33:58;;;;;;;11.55;10.35;;;;;;;33.23;33.90;101505.84;4865772;24;20041;-79
2023/06/11 06:36:29;;;;;;;11.65;10.45;;;;;;;33.12;33.77;101407.63;4841955;29;20050;-79
2023/06/11 06:39:01;;;;;;;11.65;10.35;;;;;;;34.00;31.45;101503.13;4841186;29;20034;-79
2023/06/11 06:41:26;;;;;;;13.60;10.63;;;;;;;34.51;31.17;101501.47;4842212;29;20072;-77
2023/06/11 06:43:52;;;;;;;12.32;11.02;;;;;;;34.82;30.78;101507.44;4825576;29;20134;-77
2023/06/11 06:46:26;;;;;;;16.92;10.93;;;;;;;34.58;31.93;101456.56;4848386;23;20195;-79
2023/06/11 06:48:52;;;;;;;13.98;10.00;;;;;;;34.46;31.07;101429.81;4842045;29;20122;-80
2023/06/11 06:51:20;;;;;;;12.35;10.95;;;;;;;34.66;29.88;101375.69;4841993;29;20509;-80
2023/06/11 06:53:51;;;;;;;12.20;9.85;;;;;;;35.15;30.41;101367.88;4841443;29;20030;-79
2023/06/11 06:56:21;;;;;;;10.70;9.40;;;;;;;36.29;28.50;101495.44;4841892;29;20492;-80
2023/06/11 06:59:02;;;;;;;12.73;9.38;;;;;;;35.92;29.74;101412.72;4841430;29;20116;-80
2023/06/11 07:01:27;;;;;;;11.23;9.55;;;;;;;35.87;27.87;101412.66;4841807;29;20030;-79
2023/06/11 07:03:53;;;;;;;12.93;9.73;;;;;;;36.03;28.60;101491.63;4841523;29;20033;-79
2023/06/11 07:06:18;;;;;;;9.95;8.95;;;;;;;35.98;28.97;101495.03;4841661;29;20037;-79
2023/06/11 07:08:43;;;;;;;10.27;9.18;;;;;;;36.01;28.87;101499.94;4841499;29;20036;-80
2023/06/11 07:11:09;;;;;;;10.27;9.13;;;;;;;36.23;28.34;101488.34;4841758;29;20030;-80
2023/06/11 07:13:35;;;;;;;12.65;8.88;;;;;;;36.36;28.03;101501.44;4841992;29;20098;-79
2023/06/11 07:16:00;;;;;;;9.23;8.13;;;;;;;36.35;29.13;101492.56;4841807;29;20022;-80
2023/06/11 07:18:27;;;;;;;10.93;8.10;;;;;;;36.67;27.42;101492.63;4841604;29;20364;-79
2023/06/11 07:20:53;;;;;;;10.20;7.65;;;;;;;36.64;27.79;101495.81;4841453;29;20054;-79
2023/06/11 07:23:18;;;;;;;19.55;8.20;;;;;;;36.59;28.00;101493.09;4851016;29;20455;-79
2023/06/11 07:25:44;;;;;;;8.98;7.63;;;;;;;37.11;27.59;101497.06;4860898;29;20042;-78
2023/06/11 07:28:10;;;;;;;8.88;8.02;;;;;;;37.38;27.48;101508.63;4860015;29;20022;-77
2023/06/11 07:30:36;;;;;;;9.90;8.63;;;;;;;36.84;26.92;101492.53;4860096;29;20034;-78
2023/06/11 07:33:02;;;;;;;8.90;7.88;;;;;;;36.32;27.92;101501.09;4858594;29;20034;-75
2023/06/11 07:35:27;;;;;;;8.23;7.35;;;;;;;36.22;28.20;101484.06;4858428;29;20099;-77
2023/06/11 07:37:54;;;;;;;8.80;7.90;;;;;;;36.28;28.13;101483.84;4859890;29;20541;-77
2023/06/11 07:40:20;;;;;;;8.85;7.25;;;;;;;35.49;29.65;101513.69;4863297;29;20085;-78
2023/06/11 07:42:47;;;;;;;11.25;8.35;;;;;;;33.92;31.40;101504.31;4863329;29;20037;-78
2023/06/11 07:45:13;;;;;;;9.07;7.82;;;;;;;32.45;34.01;101506.75;4863356;29;20042;-75
2023/06/11 07:47:40;;;;;;;11.13;7.97;;;;;;;31.49;36.06;101506.47;4863399;29;20436;-78
2023/06/11 07:50:06;;;;;;;9.02;7.70;;;;;;;30.69;37.23;101493.66;4863443;29;20406;-75
2023/06/11 07:52:32;;;;;;;9.88;7.53;;;;;;;29.91;38.68;101509.66;4863253;29;20033;-75
2023/06/11 07:54:57;;;;;;;10.45;8.10;;;;;;;29.29;40.34;101489.56;4862971;29;20139;-77
2023/06/11 07:57:23;;;;;;;12.27;8.07;;;;;;;28.93;41.86;101484.63;4863021;29;20029;-80
2023/06/11 07:59:48;;;;;;;10.30;8.20;;;;;;;28.96;42.42;101508.16;4862975;29;20081;-78
2023/06/11 08:02:14;;;;;;;10.98;8.38;;;;;;;28.81;41.57;101500.34;4863090;29;20033;-79
2023/06/11 08:04:40;;;;;;;10.52;8.70;;;;;;;28.73;41.73;101508.47;4862770;29;20104;-79
2023/06/11 08:07:06;;;;;;;8.50;7.60;;;;;;;28.43;43.41;101512.47;4863109;29;20399;-78
2023/06/11 08:09:36;;;;;;;9.55;7.90;;;;;;;28.43;43.48;101513.28;4862784;29;20077;-78
2023/06/11 08:12:11;;;;;;;9.13;7.70;;;;;;;28.47;43.58;101508.38;4863937;29;20037;-79
2023/06/11 08:20:07;;;;;;;9.48;8.38;;;;;;;27.46;44.09;101361.97;4830136;29;20049;-79
2023/06/11 08:22:41;;;;;;;9.90;8.63;;;;;;;28.43;43.93;101502.66;4844313;29;20084;-78
2023/06/11 08:25:08;;;;;;;10.05;8.23;;;;;;;28.39;44.31;101503.22;4844170;29;20061;-78
2023/06/11 08:27:33;;;;;;;10.50;8.23;;;;;;;28.46;45.10;101499.59;4844413;29;20034;-78
2023/06/11 08:29:58;;;;;;;10.73;8.60;;;;;;;28.27;43.84;101498.44;4844051;29;20030;-79
2023/06/11 08:32:24;;;;;;;9.55;8.50;;;;;;;28.09;44.14;101495.47;4844148;29;20088;-79
2023/06/11 08:34:50;;;;;;;10.85;8.10;;;;;;;27.94;44.37;101492.13;4843674;29;20042;-80
2023/06/11 08:37:15;;;;;;;9.85;8.85;;;;;;;27.99;45.74;101495.00;4850871;24;20126;-80
2023/06/11 08:39:41;;;;;;;13.20;8.52;;;;;;;28.07;45.62;101497.53;4843684;29;20355;-79
2023/06/11 08:42:07;;;;;;;12.55;8.18;;;;;;;28.19;44.50;101489.81;4843880;29;20127;-79
2023/06/11 08:44:37;;;;;;;9.82;8.13;;;;;;;28.29;44.95;101492.97;4843759;29;20475;-79
2023/06/11 08:47:03;;;;;;;10.18;8.43;;;;;;;28.44;44.45;101498.16;4843968;29;20042;-78
2023/06/11 08:49:30;;;;;;;12.20;7.68;;;;;;;28.18;44.38;101446.50;4843480;29;20493;-80
2023/06/11 08:52:02;;;;;;;12.32;8.25;;;;;;;28.55;44.68;101487.78;4843790;29;20026;-79
2023/06/11 08:54:28;;;;;;;8.57;7.57;;;;;;;28.57;44.46;101482.25;4843647;29;20098;-79
2023/06/11 08:56:53;;;;;;;10.07;7.60;;;;;;;28.64;44.40;101469.81;4843719;29;20436;-79
2023/06/11 08:59:19;;;;;;;10.63;7.82;;;;;;;28.52;44.21;101490.00;4843670;29;20239;-79
2023/06/11 09:01:50;;;;;;;8.07;7.28;;;;;;;28.29;43.81;101443.31;4843455;29;20037;-79
2023/06/11 09:04:19;;;;;;;9.52;7.47;;;;;;;28.45;44.03;101460.75;4843230;29;20103;-79
2023/06/11 09:07:03;;;;;;;9.85;7.72;;;;;;;28.54;43.45;101445.47;4842090;29;20109;-75
2023/06/11 09:09:29;;;;;;;10.73;6.90;;;;;;;28.87;43.79;101482.75;4843340;29;20053;-78
2023/06/11 09:11:54;;;;;;;9.70;7.32;;;;;;;28.71;42.77;101475.13;4843483;29;20057;-79
2023/06/11 09:14:20;;;;;;;10.93;7.88;;;;;;;28.31;43.48;101459.03;4843399;29;20082;-78
2023/06/11 09:16:47;;;;;;;8.77;7.07;;;;;;;28.14;43.43;101465.69;4843168;29;20490;-78
2023/06/11 09:19:19;;;;;;;8.45;7.55;;;;;;;28.35;44.58;101475.44;4843128;29;20026;-79
2023/06/11 09:21:52;;;;;;;9.60;7.50;;;;;;;28.46;45.13;101467.69;4843183;29;20064;-77
2023/06/11 09:24:19;;;;;;;10.75;7.55;;;;;;;28.63;44.19;101481.47;4842889;29;20098;-78
2023/06/11 09:26:58;;;;;;;7.63;6.80;;;;;;;28.65;43.32;101478.59;4843185;29;20025;-79
2023/06/11 09:29:25;;;;;;;9.25;6.93;;;;;;;28.65;43.11;101468.78;4843108;29;20054;-79
2023/06/11 09:32:02;;;;;;;9.13;8.15;;;;;;;28.79;43.40;101472.28;4843432;29;20102;-79
2023/06/11 09:34:28;;;;;;;8.10;7.25;;;;;;;28.86;43.70;101470.47;4843199;29;20046;-79
2023/06/11 09:36:53;;;;;;;9.10;7.07;;;;;;;29.08;43.69;101468.50;4843033;29;20068;-79
2023/06/11 09:39:19;;;;;;;9.65;7.43;;;;;;;29.24;42.13;101473.41;4843099;29;20061;-80
2023/06/11 09:41:51;;;;;;;7.22;6.47;;;;;;;29.01;41.19;101479.13;4842713;29;20082;-80
2023/06/11 09:44:17;;;;;;;9.63;7.35;;;;;;;28.77;41.15;101466.38;4841689;29;20136;-80
2023/06/11 09:46:44;;;;;;;9.25;7.05;;;;;;;28.88;42.05;101480.91;4843102;29;20068;-79
2023/06/11 09:49:11;;;;;;;8.20;6.80;;;;;;;28.98;41.62;101473.38;4845843;29;20070;-78
2023/06/11 09:51:38;;;;;;;10.48;7.00;;;;;;;29.06;39.86;101465.22;4862062;29;20033;-80
2023/06/11 09:54:06;;;;;;;8.05;6.28;;;;;;;29.00;39.76;101476.66;4861696;29;20026;-80
2023/06/11 09:56:33;;;;;;;8.88;6.60;;;;;;;29.01;40.30;101476.47;4860968;29;20033;-79
2023/06/11 09:58:58;;;;;;;8.18;6.53;;;;;;;29.08;40.20;101469.31;4861067;29;20029;-80
2023/06/11 10:01:25;;;;;;;7.65;6.28;;;;;;;29.34;38.99;101481.81;4860577;29;20390;-77
2023/06/11 10:03:51;;;;;;;7.95;6.25;;;;;;;29.43;39.66;101477.94;4860911;29;20502;-78
2023/06/11 10:06:22;;;;;;;7.10;6.07;;;;;;;29.21;38.68;101449.91;4859710;29;20081;-79
2023/06/11 10:08:50;;;;;;;8.02;5.45;;;;;;;29.35;38.11;101456.84;4859738;29;20034;-78
2023/06/11 10:11:21;;;;;;;8.52;6.28;;;;;;;29.47;39.45;101480.16;4860883;29;20442;-76
2023/06/11 10:14:00;;;;;;;9.38;6.60;;;;;;;29.43;39.01;101475.28;4860856;29;20041;-79
2023/06/11 10:16:27;;;;;;;10.10;6.60;;;;;;;29.27;39.13;101467.69;4860744;29;20081;-78
2023/06/11 10:19:03;;;;;;;9.82;6.53;;;;;;;29.48;40.57;101472.00;4860875;29;20064;-77
2023/06/11 10:21:50;;;;;;;7.82;5.93;;;;;;;29.59;39.13;101471.38;4860084;29;20094;-78
2023/06/11 10:24:25;;;;;;;8.18;5.88;;;;;;;29.77;38.38;101473.41;4860684;29;20041;-79
2023/06/11 10:27:12;;;;;;;9.05;6.28;;;;;;;29.56;38.30;101458.50;4860465;29;20371;-78
2023/06/11 10:29:39;;;;;;;9.70;6.60;;;;;;;29.42;37.97;101452.34;4860627;29;20029;-79
2023/06/11 10:32:19;;;;;;;7.60;6.38;;;;;;;29.40;38.26;101462.38;4860698;29;20037;-79
2023/06/11 10:34:52;;;;;;;9.57;6.83;;;;;;;29.45;39.00;101458.28;4860476;29;20038;-79
2023/06/11 10:37:28;;;;;;;7.20;6.20;;;;;;;29.68;38.81;101464.81;4860383;29;20313;-81
2023/06/11 10:39:54;;;;;;;7.40;6.05;;;;;;;29.83;38.00;101467.25;4860409;29;20502;-79
2023/06/11 10:42:44;;;;;;;8.95;6.50;;;;;;;29.94;38.56;101477.28;4858938;29;20076;-76
2023/06/11 10:45:11;;;;;;;6.97;6.20;;;;;;;29.96;38.30;101466.41;4785439;30;20067;-79
2023/06/11 10:47:42;;;;;;;7.75;6.50;;;;;;;29.99;38.37;101445.53;4785922;30;20135;-79
2023/06/11 10:50:09;;;;;;;6.43;5.70;;;;;;;30.14;38.35;101452.47;4785500;30;20040;-79
2023/06/11 10:52:51;;;;;;;7.10;6.13;;;;;;;30.21;38.15;101466.56;4785764;30;20031;-80
2023/06/11 10:55:20;;;;;;;7.75;6.28;;;;;;;30.20;37.57;101457.78;4785418;30;20144;-79
2023/06/11 10:57:46;;;;;;;8.88;5.75;;;;;;;30.18;37.44;101461.66;4785200;30;20512;-79
2023/06/11 11:00:12;;;;;;;7.70;6.20;;;;;;;30.06;37.64;101465.97;4785450;30;20528;-78
2023/06/11 11:02:38;;;;;;;7.35;5.32;;;;;;;29.79;36.86;101458.03;4786193;30;20039;-79
2023/06/11 11:05:07;;;;;;;7.65;5.00;;;;;;;29.72;36.65;101459.91;4785400;30;20040;-78
2023/06/11 11:07:35;;;;;;;7.43;5.55;;;;;;;29.37;37.32;101420.19;4785420;30;20031;-79
2023/06/11 11:10:02;;;;;;;7.18;5.00;;;;;;;29.66;36.17;101468.72;4785568;30;20381;-78
2023/06/11 11:12:36;;;;;;;7.80;5.43;;;;;;;29.73;35.12;101452.75;4785103;29;20039;-79
2023/06/11 11:15:03;;;;;;;7.22;5.20;;;;;;;29.88;35.70;101464.78;4789170;30;20051;-79
2023/06/11 11:17:30;;;;;;;7.78;4.85;;;;;;;30.04;35.08;101470.69;4789029;30;20041;-79
2023/06/11 11:19:56;;;;;;;5.72;4.18;;;;;;;29.99;34.17;101461.50;4789057;30;20039;-79
2023/06/11 11:22:22;;;;;;;8.18;4.90;;;;;;;30.09;35.17;101462.91;4833738;29;20076;-80